Anafi — ZDNU7 — position and weather

sailwx.info

Track history (hours):
 
Tides and Currents Weather Stations Pressure Air Temp Water Temp Dewpoint Dewpoint Depression Visibility Wind Speed Wind Dir Waves Ship Positions

Anafi

Last reported at 2017-Nov-18 04:11 UTC. Time now 2017-Nov-18 10:31 UTC.
Position N 28°29' W 016°13'.

Length 100 m; draft 5.1 m.

Type: Tanker. MMSI: 236638000.

Date/timePositionNaut miles runAvg speedWind from/ knotsBaromVisibWave heightAir tempDewpointWater temp
2017-Nov-18 04:11N 28°29' W 016°13'2 0.1
2017-Nov-17 11:26N 28°30' W 016°11'1 1.6
2017-Nov-17 11:00N 28°29' W 016°11'0 0.5
2017-Nov-17 10:30N 28°29' W 016°10'0 0.4
2017-Nov-17 09:49N 28°29' W 016°10'0 0.5
2017-Nov-17 09:29N 28°29' W 016°10'4 7.7
2017-Nov-17 09:01N 28°31' W 016°06'32 8.8
2017-Nov-17 05:22N 28°39' W 016°41'33 0.9
2017-Nov-15 16:47N 28°34' W 016°04'310.0
2017-Nov-15 16:30N 28°31' W 016°06'7 0.7
2017-Nov-15 06:23N 28°29' W 016°13'2 0.1
2017-Nov-14 05:32N 28°30' W 016°11'0 0.1
2017-Nov-14 05:18N 28°30' W 016°11'4 4.4
2017-Nov-14 04:26N 28°30' W 016°07'811.9
2017-Nov-14 03:46N 28°34' W 015°59'1011.7
2017-Nov-14 02:53N 28°40' W 015°49'411.3
2017-Nov-14 02:29N 28°40' W 015°44'611.6
2017-Nov-14 02:00N 28°41' W 015°38'611.4
2017-Nov-14 01:30N 28°41' W 015°31'611.4
2017-Nov-14 01:00N 28°41' W 015°25'611.3
2017-Nov-14 00:30N 28°41' W 015°18'611.4
2017-Nov-14 00:00N 28°42' W 015°12'611.4
2017-Nov-13 23:30N 28°42' W 015°05'611.5
2017-Nov-13 23:00N 28°43' W 014°59'61 2.8
2017-Nov-13 01:25N 28°30' W 013°51'  
2017-Nov-10 18:17N 28°15' W 013°53'6 8.1
2017-Nov-10 17:30N 28°10' W 013°58'8 9.3
2017-Nov-10 16:38N 28°06' W 014°06'2 9.4
2017-Nov-10 16:24N 28°05' W 014°08'4 9.4
2017-Nov-10 15:59N 28°03' W 014°12'5 9.7
2017-Nov-10 15:30N 28°01' W 014°17'510.2
2017-Nov-10 15:00N 27°59' W 014°22'710.0
2017-Nov-10 14:16N 27°57' W 014°30'3 9.7
2017-Nov-10 14:00N 27°56' W 014°32'7 9.2
2017-Nov-10 13:17N 27°54' W 014°39'13 8.6
2017-Nov-10 11:45N 27°49' W 014°53'3 8.4
2017-Nov-10 11:24N 27°48' W 014°57'4 8.5
2017-Nov-10 10:58N 27°48' W 015°01'4 8.8
2017-Nov-10 10:30N 27°47' W 015°05'4 8.6
2017-Nov-10 10:00N 27°45' W 015°10'4 8.6
2017-Nov-10 09:29N 27°44' W 015°15'69 7.1
2017-Nov-09 23:46N 28°29' W 016°13'0 0.0
2017-Nov-09 12:14N 28°29' W 016°13'1 1.9
2017-Nov-09 11:58N 28°29' W 016°14'3 0.2
2017-Nov-08 18:49N 28°30' W 016°11'0 0.8
2017-Nov-08 18:27N 28°29' W 016°11'3 4.3
2017-Nov-08 17:40N 28°29' W 016°07'2 9.6
2017-Nov-08 17:29N 28°28' W 016°06'6 9.6
2017-Nov-08 16:53N 28°25' W 016°01'411.1
2017-Nov-08 16:29N 28°23' W 015°56'511.2
2017-Nov-08 16:00N 28°22' W 015°50'611.4
2017-Nov-08 15:30N 28°25' W 015°45'611.3
2017-Nov-08 15:00N 28°28' W 015°39'611.2
2017-Nov-08 14:30N 28°31' W 015°34'611.1
2017-Nov-08 14:00N 28°34' W 015°28'611.3
2017-Nov-08 13:30N 28°36' W 015°22'611.3
2017-Nov-08 13:01N 28°38' W 015°16'611.0
2017-Nov-08 12:30N 28°41' W 015°11'610.9
2017-Nov-08 12:00N 28°43' W 015°05'510.7
2017-Nov-08 11:30N 28°45' W 014°59'510.7
2017-Nov-08 11:00N 28°47' W 014°54'510.7
2017-Nov-08 10:30N 28°49' W 014°48'611.1
2017-Nov-08 09:58N 28°51' W 014°42'1011.3
2017-Nov-08 09:03N 28°55' W 014°31'111.1
2017-Nov-08 08:58N 28°56' W 014°30'611.0
2017-Nov-08 08:26N 28°58' W 014°24'611.3
2017-Nov-08 07:57N 28°59' W 014°18'511.5
2017-Nov-08 07:30N 29°01' W 014°12'611.0
2017-Nov-08 07:00N 29°03' W 014°06'510.0
2017-Nov-08 06:30N 28°60' W 014°02'5 9.6
2017-Nov-08 06:00N 28°56' W 013°59'  
Track history (hours):
 
Tides and Currents Weather Stations Pressure Air Temp Water Temp Dewpoint Dewpoint Depression Visibility Wind Speed Wind Dir Waves Ship Positions

Anafi

Last reported at 2017-Nov-18 04:11 UTC. Time now 2017-Nov-18 10:31 UTC.
Position N 28°29' W 016°13'.

Length 100 m; draft 5.1 m.

Type: Tanker. MMSI: 236638000.

Date/timePositionNaut miles runAvg speedWind from/ knotsBaromVisibWave heightAir tempDewpointWater temp
2017-Nov-18 04:11N 28°29' W 016°13'2 0.1
2017-Nov-17 11:26N 28°30' W 016°11'1 1.6
2017-Nov-17 11:00N 28°29' W 016°11'0 0.5
2017-Nov-17 10:30N 28°29' W 016°10'0 0.4
2017-Nov-17 09:49N 28°29' W 016°10'0 0.5
2017-Nov-17 09:29N 28°29' W 016°10'4 7.7
2017-Nov-17 09:01N 28°31' W 016°06'32 8.8
2017-Nov-17 05:22N 28°39' W 016°41'33 0.9
2017-Nov-15 16:47N 28°34' W 016°04'310.0
2017-Nov-15 16:30N 28°31' W 016°06'7 0.7
2017-Nov-15 06:23N 28°29' W 016°13'2 0.1
2017-Nov-14 05:32N 28°30' W 016°11'0 0.1
2017-Nov-14 05:18N 28°30' W 016°11'4 4.4
2017-Nov-14 04:26N 28°30' W 016°07'811.9
2017-Nov-14 03:46N 28°34' W 015°59'1011.7
2017-Nov-14 02:53N 28°40' W 015°49'411.3
2017-Nov-14 02:29N 28°40' W 015°44'611.6
2017-Nov-14 02:00N 28°41' W 015°38'611.4
2017-Nov-14 01:30N 28°41' W 015°31'611.4
2017-Nov-14 01:00N 28°41' W 015°25'611.3
2017-Nov-14 00:30N 28°41' W 015°18'611.4
2017-Nov-14 00:00N 28°42' W 015°12'611.4
2017-Nov-13 23:30N 28°42' W 015°05'611.5
2017-Nov-13 23:00N 28°43' W 014°59'61 2.8
2017-Nov-13 01:25N 28°30' W 013°51'  
2017-Nov-10 18:17N 28°15' W 013°53'6 8.1
2017-Nov-10 17:30N 28°10' W 013°58'8 9.3
2017-Nov-10 16:38N 28°06' W 014°06'2 9.4
2017-Nov-10 16:24N 28°05' W 014°08'4 9.4
2017-Nov-10 15:59N 28°03' W 014°12'5 9.7
2017-Nov-10 15:30N 28°01' W 014°17'510.2
2017-Nov-10 15:00N 27°59' W 014°22'710.0
2017-Nov-10 14:16N 27°57' W 014°30'3 9.7
2017-Nov-10 14:00N 27°56' W 014°32'7 9.2
2017-Nov-10 13:17N 27°54' W 014°39'13 8.6
2017-Nov-10 11:45N 27°49' W 014°53'3 8.4
2017-Nov-10 11:24N 27°48' W 014°57'4 8.5
2017-Nov-10 10:58N 27°48' W 015°01'4 8.8
2017-Nov-10 10:30N 27°47' W 015°05'4 8.6
2017-Nov-10 10:00N 27°45' W 015°10'4 8.6
2017-Nov-10 09:29N 27°44' W 015°15'69 7.1
2017-Nov-09 23:46N 28°29' W 016°13'0 0.0
2017-Nov-09 12:14N 28°29' W 016°13'1 1.9
2017-Nov-09 11:58N 28°29' W 016°14'3 0.2
2017-Nov-08 18:49N 28°30' W 016°11'0 0.8
2017-Nov-08 18:27N 28°29' W 016°11'3 4.3
2017-Nov-08 17:40N 28°29' W 016°07'2 9.6
2017-Nov-08 17:29N 28°28' W 016°06'6 9.6
2017-Nov-08 16:53N 28°25' W 016°01'411.1
2017-Nov-08 16:29N 28°23' W 015°56'511.2
2017-Nov-08 16:00N 28°22' W 015°50'611.4
2017-Nov-08 15:30N 28°25' W 015°45'611.3
2017-Nov-08 15:00N 28°28' W 015°39'611.2
2017-Nov-08 14:30N 28°31' W 015°34'611.1
2017-Nov-08 14:00N 28°34' W 015°28'611.3
2017-Nov-08 13:30N 28°36' W 015°22'611.3
2017-Nov-08 13:01N 28°38' W 015°16'611.0
2017-Nov-08 12:30N 28°41' W 015°11'610.9
2017-Nov-08 12:00N 28°43' W 015°05'510.7
2017-Nov-08 11:30N 28°45' W 014°59'510.7
2017-Nov-08 11:00N 28°47' W 014°54'510.7
2017-Nov-08 10:30N 28°49' W 014°48'611.1
2017-Nov-08 09:58N 28°51' W 014°42'1011.3
2017-Nov-08 09:03N 28°55' W 014°31'111.1
2017-Nov-08 08:58N 28°56' W 014°30'611.0
2017-Nov-08 08:26N 28°58' W 014°24'611.3
2017-Nov-08 07:57N 28°59' W 014°18'511.5
2017-Nov-08 07:30N 29°01' W 014°12'611.0
2017-Nov-08 07:00N 29°03' W 014°06'510.0
2017-Nov-08 06:30N 28°60' W 014°02'5 9.6
2017-Nov-08 06:00N 28°56' W 013°59'  

Dump ship's entire track history